PWSweather.com
Personal Weather Stations
Station Observations
WUFYI1828
Erie, CO

Erie, CO

Lat: 40.03382874, Lon: -105.04464722

Elevation: 5212

Station Type:

High Low Average
Temperature 33.3°F0.7°C 10.0°F-12.2°C 22.9°F-5.1°C
Dew Point 20.5°F-6.4°C 4.1°F-15.5°C 11.3°F-11.5°C
Winds 5.8 mph 9.3 kmh Calm Calm 1.0 mph SE1.6 kmh SE
Wind Gusts 8.1 mph13.0 kmh -- 2.0 mph3.2 kmh
Humidity 90% 43% 62%
Pressure 29.83 in1010.2 mb 29.65 in1004.1 mb -
Precipitation 0.00 in0.0 mm - -
Hour Temp Dew Point Humidity Winds Wind Gusts Pressure Precip Precip Rate Daily Precip Total
12:04 AM 17.2°F-8.2°C 11.1°F-11.6°C 77% Calm Calm -- 29.65 in1004.1 mb 0.00 in0.0 mm 0.00 in0.0 mm 0.00 in0.0 mm
12:09 AM 16.9°F-8.4°C 10.8°F-11.8°C 77% Calm Calm -- 29.65 in1004.1 mb 0.00 in0.0 mm 0.00 in0.0 mm 0.00 in0.0 mm
12:14 AM 16.2°F-8.8°C 11.1°F-11.6°C 80% Calm Calm -- 29.65 in1004.1 mb 0.00 in0.0 mm 0.00 in0.0 mm 0.00 in0.0 mm
12:19 AM 16.7°F-8.5°C 10.9°F-11.7°C 78% Calm Calm -- 29.65 in1004.1 mb 0.00 in0.0 mm 0.00 in0.0 mm 0.00 in0.0 mm
12:24 AM 16.7°F-8.5°C 10.9°F-11.7°C 78% Calm Calm -- 29.65 in1004.1 mb 0.00 in0.0 mm 0.00 in0.0 mm 0.00 in0.0 mm
12:29 AM 16.3°F-8.7°C 10.6°F-11.9°C 78% 0.2 mph SE0.3 kmh SE 1.1 mph1.8 kmh 29.65 in1004.1 mb 0.00 in0.0 mm 0.00 in0.0 mm 0.00 in0.0 mm
12:34 AM 16.9°F-8.4°C 10.6°F-11.9°C 76% Calm Calm -- 29.65 in1004.1 mb 0.00 in0.0 mm 0.00 in0.0 mm 0.00 in0.0 mm
12:39 AM 16.3°F-8.7°C 10.2°F-12.1°C 77% Calm Calm -- 29.65 in1004.1 mb 0.00 in0.0 mm 0.00 in0.0 mm 0.00 in0.0 mm
12:44 AM 15.4°F-9.2°C 10.4°F-12.0°C 80% Calm Calm -- 29.66 in1004.4 mb 0.00 in0.0 mm 0.00 in0.0 mm 0.00 in0.0 mm
12:49 AM 15.6°F-9.1°C 10.2°F-12.1°C 79% Calm Calm -- 29.65 in1004.1 mb 0.00 in0.0 mm 0.00 in0.0 mm 0.00 in0.0 mm
12:54 AM 16.3°F-8.7°C 10.2°F-12.1°C 77% 0.2 mph SE0.3 kmh SE 1.1 mph1.8 kmh 29.65 in1004.1 mb 0.00 in0.0 mm 0.00 in0.0 mm 0.00 in0.0 mm
01:04 AM 16.9°F-8.4°C 10.6°F-11.9°C 76% Calm Calm -- 29.65 in1004.1 mb 0.00 in0.0 mm 0.00 in0.0 mm 0.00 in0.0 mm
01:09 AM 16.9°F-8.4°C 10.8°F-11.8°C 77% Calm Calm -- 29.66 in1004.4 mb 0.00 in0.0 mm 0.00 in0.0 mm 0.00 in0.0 mm
01:14 AM 16.9°F-8.4°C 10.6°F-11.9°C 76% Calm Calm -- 29.66 in1004.4 mb 0.00 in0.0 mm 0.00 in0.0 mm 0.00 in0.0 mm
01:19 AM 16.9°F-8.4°C 10.2°F-12.1°C 75% 0.2 mph SE0.3 kmh SE 1.1 mph1.8 kmh 29.67 in1004.7 mb 0.00 in0.0 mm 0.00 in0.0 mm 0.00 in0.0 mm
01:24 AM 17.2°F-8.2°C 10.6°F-11.9°C 75% 0.2 mph SSE0.3 kmh SSE 1.1 mph1.8 kmh 29.66 in1004.4 mb 0.00 in0.0 mm 0.00 in0.0 mm 0.00 in0.0 mm
01:29 AM 17.1°F-8.3°C 10.4°F-12.0°C 75% Calm Calm -- 29.66 in1004.4 mb 0.00 in0.0 mm 0.00 in0.0 mm 0.00 in0.0 mm
01:34 AM 16.5°F-8.6°C 10.0°F-12.2°C 75% 0.9 mph SSE1.4 kmh SSE 1.1 mph1.8 kmh 29.66 in1004.4 mb 0.00 in0.0 mm 0.00 in0.0 mm 0.00 in0.0 mm
01:39 AM 16.3°F-8.7°C 9.9°F-12.3°C 75% 0.2 mph SSE0.3 kmh SSE 1.1 mph1.8 kmh 29.67 in1004.7 mb 0.00 in0.0 mm 0.00 in0.0 mm 0.00 in0.0 mm
01:44 AM 15.8°F-9.0°C 9.5°F-12.5°C 76% Calm Calm -- 29.66 in1004.4 mb 0.00 in0.0 mm 0.00 in0.0 mm 0.00 in0.0 mm
01:49 AM 16.0°F-8.9°C 9.5°F-12.5°C 75% Calm Calm -- 29.67 in1004.7 mb 0.00 in0.0 mm 0.00 in0.0 mm 0.00 in0.0 mm
01:54 AM 15.3°F-9.3°C 9.9°F-12.3°C 79% Calm Calm -- 29.67 in1004.7 mb 0.00 in0.0 mm 0.00 in0.0 mm 0.00 in0.0 mm
01:59 AM 15.1°F-9.4°C 9.3°F-12.6°C 78% Calm Calm -- 29.66 in1004.4 mb 0.00 in0.0 mm 0.00 in0.0 mm 0.00 in0.0 mm
02:04 AM 15.6°F-9.1°C 9.1°F-12.7°C 75% 0.7 mph SSE1.1 kmh SSE 1.1 mph1.8 kmh 29.66 in1004.4 mb 0.00 in0.0 mm 0.00 in0.0 mm 0.00 in0.0 mm
02:09 AM 16.2°F-8.8°C 9.0°F-12.8°C 73% Calm Calm -- 29.67 in1004.7 mb 0.00 in0.0 mm 0.00 in0.0 mm 0.00 in0.0 mm
02:14 AM 16.7°F-8.5°C 7.9°F-13.4°C 68% Calm Calm -- 29.67 in1004.7 mb 0.00 in0.0 mm 0.00 in0.0 mm 0.00 in0.0 mm
02:19 AM 17.1°F-8.3°C 7.3°F-13.7°C 65% 0.2 mph SSE0.3 kmh SSE 1.1 mph1.8 kmh 29.66 in1004.4 mb 0.00 in0.0 mm 0.00 in0.0 mm 0.00 in0.0 mm
02:24 AM 17.1°F-8.3°C 7.0°F-13.9°C 64% 0.2 mph SSE0.3 kmh SSE 1.1 mph1.8 kmh 29.67 in1004.7 mb 0.00 in0.0 mm 0.00 in0.0 mm 0.00 in0.0 mm
02:29 AM 17.1°F-8.3°C 5.9°F-14.5°C 61% 0.4 mph S0.6 kmh S 1.1 mph1.8 kmh 29.67 in1004.7 mb 0.00 in0.0 mm 0.00 in0.0 mm 0.00 in0.0 mm
02:34 AM 17.1°F-8.3°C 5.9°F-14.5°C 61% Calm Calm -- 29.66 in1004.4 mb 0.00 in0.0 mm 0.00 in0.0 mm 0.00 in0.0 mm
02:39 AM 16.7°F-8.5°C 7.0°F-13.9°C 65% Calm Calm -- 29.67 in1004.7 mb 0.00 in0.0 mm 0.00 in0.0 mm 0.00 in0.0 mm
02:44 AM 15.4°F-9.2°C 6.1°F-14.4°C 66% 0.7 mph SE1.1 kmh SE 1.1 mph1.8 kmh 29.67 in1004.7 mb 0.00 in0.0 mm 0.00 in0.0 mm 0.00 in0.0 mm
02:49 AM 15.8°F-9.0°C 6.1°F-14.4°C 65% Calm Calm -- 29.67 in1004.7 mb 0.00 in0.0 mm 0.00 in0.0 mm 0.00 in0.0 mm
02:54 AM 15.6°F-9.1°C 5.5°F-14.7°C 64% Calm Calm -- 29.66 in1004.4 mb 0.00 in0.0 mm 0.00 in0.0 mm 0.00 in0.0 mm
02:59 AM 15.4°F-9.2°C 5.4°F-14.8°C 64% Calm Calm -- 29.67 in1004.7 mb 0.00 in0.0 mm 0.00 in0.0 mm 0.00 in0.0 mm
03:04 AM 15.6°F-9.1°C 4.8°F-15.1°C 62% Calm Calm -- 29.68 in1005.1 mb 0.00 in0.0 mm 0.00 in0.0 mm 0.00 in0.0 mm
03:09 AM 15.4°F-9.2°C 5.4°F-14.8°C 64% Calm Calm -- 29.68 in1005.1 mb 0.00 in0.0 mm 0.00 in0.0 mm 0.00 in0.0 mm
03:14 AM 14.9°F-9.5°C 4.8°F-15.1°C 64% Calm Calm -- 29.68 in1005.1 mb 0.00 in0.0 mm 0.00 in0.0 mm 0.00 in0.0 mm
03:19 AM 14.9°F-9.5°C 5.2°F-14.9°C 65% Calm Calm -- 29.68 in1005.1 mb 0.00 in0.0 mm 0.00 in0.0 mm 0.00 in0.0 mm
03:24 AM 14.2°F-9.9°C 5.5°F-14.7°C 68% Calm Calm -- 29.68 in1005.1 mb 0.00 in0.0 mm 0.00 in0.0 mm 0.00 in0.0 mm
03:29 AM 14.4°F-9.8°C 5.0°F-15.0°C 66% Calm Calm -- 29.68 in1005.1 mb 0.00 in0.0 mm 0.00 in0.0 mm 0.00 in0.0 mm
03:34 AM 14.7°F-9.6°C 5.0°F-15.0°C 65% Calm Calm -- 29.69 in1005.4 mb 0.00 in0.0 mm 0.00 in0.0 mm 0.00 in0.0 mm
03:39 AM 14.5°F-9.7°C 5.2°F-14.9°C 66% Calm Calm -- 29.68 in1005.1 mb 0.00 in0.0 mm 0.00 in0.0 mm 0.00 in0.0 mm
03:44 AM 14.7°F-9.6°C 4.5°F-15.3°C 63% 0.7 mph SE1.1 kmh SE 1.1 mph1.8 kmh 29.68 in1005.1 mb 0.00 in0.0 mm 0.00 in0.0 mm 0.00 in0.0 mm
03:49 AM 15.1°F-9.4°C 4.3°F-15.4°C 62% 0.4 mph S0.6 kmh S 1.1 mph1.8 kmh 29.68 in1005.1 mb 0.00 in0.0 mm 0.00 in0.0 mm 0.00 in0.0 mm
03:54 AM 15.3°F-9.3°C 4.1°F-15.5°C 61% Calm Calm -- 29.68 in1005.1 mb 0.00 in0.0 mm 0.00 in0.0 mm 0.00 in0.0 mm
03:59 AM 14.9°F-9.5°C 4.1°F-15.5°C 62% 0.4 mph S0.6 kmh S 1.1 mph1.8 kmh 29.68 in1005.1 mb 0.00 in0.0 mm 0.00 in0.0 mm 0.00 in0.0 mm
04:04 AM 14.9°F-9.5°C 4.1°F-15.5°C 62% Calm Calm -- 29.67 in1004.7 mb 0.00 in0.0 mm 0.00 in0.0 mm 0.00 in0.0 mm
04:09 AM 14.5°F-9.7°C 4.5°F-15.3°C 64% Calm Calm -- 29.68 in1005.1 mb 0.00 in0.0 mm 0.00 in0.0 mm 0.00 in0.0 mm
04:14 AM 14.2°F-9.9°C 4.5°F-15.3°C 65% Calm Calm -- 29.68 in1005.1 mb 0.00 in0.0 mm 0.00 in0.0 mm 0.00 in0.0 mm
04:19 AM 13.6°F-10.2°C 4.6°F-15.2°C 67% Calm Calm -- 29.68 in1005.1 mb 0.00 in0.0 mm 0.00 in0.0 mm 0.00 in0.0 mm
04:24 AM 13.1°F-10.5°C 4.5°F-15.3°C 68% Calm Calm -- 29.68 in1005.1 mb 0.00 in0.0 mm 0.00 in0.0 mm 0.00 in0.0 mm
04:29 AM 12.7°F-10.7°C 4.1°F-15.5°C 68% Calm Calm -- 29.68 in1005.1 mb 0.00 in0.0 mm 0.00 in0.0 mm 0.00 in0.0 mm
04:34 AM 12.4°F-10.9°C 4.5°F-15.3°C 70% Calm Calm -- 29.68 in1005.1 mb 0.00 in0.0 mm 0.00 in0.0 mm 0.00 in0.0 mm
04:39 AM 12.0°F-11.1°C 4.5°F-15.3°C 71% Calm Calm -- 29.68 in1005.1 mb 0.00 in0.0 mm 0.00 in0.0 mm 0.00 in0.0 mm
04:44 AM 11.7°F-11.3°C 4.3°F-15.4°C 72% Calm Calm -- 29.68 in1005.1 mb 0.00 in0.0 mm 0.00 in0.0 mm 0.00 in0.0 mm
04:49 AM 11.3°F-11.5°C 4.3°F-15.4°C 73% Calm Calm -- 29.68 in1005.1 mb 0.00 in0.0 mm 0.00 in0.0 mm 0.00 in0.0 mm
04:54 AM 12.0°F-11.1°C 4.6°F-15.2°C 72% Calm Calm -- 29.67 in1004.7 mb 0.00 in0.0 mm 0.00 in0.0 mm 0.00 in0.0 mm
04:59 AM 12.6°F-10.8°C 4.6°F-15.2°C 70% Calm Calm -- 29.68 in1005.1 mb 0.00 in0.0 mm 0.00 in0.0 mm 0.00 in0.0 mm
05:04 AM 12.6°F-10.8°C 4.6°F-15.2°C 70% Calm Calm -- 29.69 in1005.4 mb 0.00 in0.0 mm 0.00 in0.0 mm 0.00 in0.0 mm
05:09 AM 11.8°F-11.2°C 4.3°F-15.4°C 71% Calm Calm -- 29.68 in1005.1 mb 0.00 in0.0 mm 0.00 in0.0 mm 0.00 in0.0 mm
05:14 AM 11.3°F-11.5°C 4.3°F-15.4°C 73% Calm Calm -- 29.68 in1005.1 mb 0.00 in0.0 mm 0.00 in0.0 mm 0.00 in0.0 mm
05:19 AM 11.1°F-11.6°C 4.5°F-15.3°C 74% Calm Calm -- 29.68 in1005.1 mb 0.00 in0.0 mm 0.00 in0.0 mm 0.00 in0.0 mm
05:24 AM 11.5°F-11.4°C 4.5°F-15.3°C 73% Calm Calm -- 29.69 in1005.4 mb 0.00 in0.0 mm 0.00 in0.0 mm 0.00 in0.0 mm
05:29 AM 10.8°F-11.8°C 4.5°F-15.3°C 75% Calm Calm -- 29.68 in1005.1 mb 0.00 in0.0 mm 0.00 in0.0 mm 0.00 in0.0 mm
05:34 AM 10.4°F-12.0°C 5.2°F-14.9°C 79% Calm Calm -- 29.68 in1005.1 mb 0.00 in0.0 mm 0.00 in0.0 mm 0.00 in0.0 mm
05:39 AM 10.2°F-12.1°C 5.0°F-15.0°C 79% Calm Calm -- 29.68 in1005.1 mb 0.00 in0.0 mm 0.00 in0.0 mm 0.00 in0.0 mm
05:44 AM 10.4°F-12.0°C 4.8°F-15.1°C 78% Calm Calm -- 29.69 in1005.4 mb 0.00 in0.0 mm 0.00 in0.0 mm 0.00 in0.0 mm
05:49 AM 10.4°F-12.0°C 5.2°F-14.9°C 79% Calm Calm -- 29.68 in1005.1 mb 0.00 in0.0 mm 0.00 in0.0 mm 0.00 in0.0 mm
05:54 AM 10.0°F-12.2°C 4.8°F-15.1°C 79% Calm Calm -- 29.68 in1005.1 mb 0.00 in0.0 mm 0.00 in0.0 mm 0.00 in0.0 mm
05:59 AM 10.6°F-11.9°C 4.6°F-15.2°C 77% Calm Calm -- 29.69 in1005.4 mb 0.00 in0.0 mm 0.00 in0.0 mm 0.00 in0.0 mm
06:04 AM 10.6°F-11.9°C 4.6°F-15.2°C 77% Calm Calm -- 29.68 in1005.1 mb 0.00 in0.0 mm 0.00 in0.0 mm 0.00 in0.0 mm
06:09 AM 10.4°F-12.0°C 4.5°F-15.3°C 77% Calm Calm -- 29.69 in1005.4 mb 0.00 in0.0 mm 0.00 in0.0 mm 0.00 in0.0 mm
06:14 AM 10.8°F-11.8°C 4.8°F-15.1°C 77% 0.2 mph S0.3 kmh S 1.1 mph1.8 kmh 29.69 in1005.4 mb 0.00 in0.0 mm 0.00 in0.0 mm 0.00 in0.0 mm
06:19 AM 11.3°F-11.5°C 5.2°F-14.9°C 76% Calm Calm -- 29.70 in1005.8 mb 0.00 in0.0 mm 0.00 in0.0 mm 0.00 in0.0 mm
06:24 AM 10.2°F-12.1°C 5.0°F-15.0°C 79% Calm Calm -- 29.70 in1005.8 mb 0.00 in0.0 mm 0.00 in0.0 mm 0.00 in0.0 mm
06:29 AM 10.2°F-12.1°C 5.4°F-14.8°C 80% Calm Calm -- 29.70 in1005.8 mb 0.00 in0.0 mm 0.00 in0.0 mm 0.00 in0.0 mm
06:34 AM 10.2°F-12.1°C 5.0°F-15.0°C 79% Calm Calm -- 29.70 in1005.8 mb 0.00 in0.0 mm 0.00 in0.0 mm 0.00 in0.0 mm
06:39 AM 10.0°F-12.2°C 4.8°F-15.1°C 79% Calm Calm -- 29.70 in1005.8 mb 0.00 in0.0 mm 0.00 in0.0 mm 0.00 in0.0 mm
06:44 AM 10.2°F-12.1°C 5.0°F-15.0°C 79% Calm Calm -- 29.69 in1005.4 mb 0.00 in0.0 mm 0.00 in0.0 mm 0.00 in0.0 mm
06:49 AM 10.8°F-11.8°C 4.8°F-15.1°C 77% Calm Calm -- 29.70 in1005.8 mb 0.00 in0.0 mm 0.00 in0.0 mm 0.00 in0.0 mm
06:54 AM 11.5°F-11.4°C 5.5°F-14.7°C 77% Calm Calm -- 29.70 in1005.8 mb 0.00 in0.0 mm 0.00 in0.0 mm 0.00 in0.0 mm
06:59 AM 11.5°F-11.4°C 5.4°F-14.8°C 76% Calm Calm -- 29.70 in1005.8 mb 0.00 in0.0 mm 0.00 in0.0 mm 0.00 in0.0 mm
07:04 AM 12.0°F-11.1°C 5.5°F-14.7°C 75% Calm Calm -- 29.70 in1005.8 mb 0.00 in0.0 mm 0.00 in0.0 mm 0.00 in0.0 mm
07:09 AM 11.8°F-11.2°C 5.9°F-14.5°C 77% Calm Calm -- 29.69 in1005.4 mb 0.00 in0.0 mm 0.00 in0.0 mm 0.00 in0.0 mm
07:14 AM 11.7°F-11.3°C 5.7°F-14.6°C 77% Calm Calm -- 29.70 in1005.8 mb 0.00 in0.0 mm 0.00 in0.0 mm 0.00 in0.0 mm
07:19 AM 11.8°F-11.2°C 5.9°F-14.5°C 77% Calm Calm -- 29.70 in1005.8 mb 0.00 in0.0 mm 0.00 in0.0 mm 0.00 in0.0 mm
07:24 AM 12.0°F-11.1°C 6.1°F-14.4°C 77% Calm Calm -- 29.70 in1005.8 mb 0.00 in0.0 mm 0.00 in0.0 mm 0.00 in0.0 mm
07:29 AM 12.2°F-11.0°C 5.7°F-14.6°C 75% Calm Calm -- 29.70 in1005.8 mb 0.00 in0.0 mm 0.00 in0.0 mm 0.00 in0.0 mm
07:34 AM 12.0°F-11.1°C 5.9°F-14.5°C 76% Calm Calm -- 29.70 in1005.8 mb 0.00 in0.0 mm 0.00 in0.0 mm 0.00 in0.0 mm
07:39 AM 12.0°F-11.1°C 5.9°F-14.5°C 76% Calm Calm -- 29.71 in1006.1 mb 0.00 in0.0 mm 0.00 in0.0 mm 0.00 in0.0 mm
07:44 AM 11.8°F-11.2°C 5.7°F-14.6°C 76% Calm Calm -- 29.71 in1006.1 mb 0.00 in0.0 mm 0.00 in0.0 mm 0.00 in0.0 mm
07:49 AM 11.7°F-11.3°C 5.5°F-14.7°C 76% Calm Calm -- 29.71 in1006.1 mb 0.00 in0.0 mm 0.00 in0.0 mm 0.00 in0.0 mm
07:54 AM 12.0°F-11.1°C 5.5°F-14.7°C 75% Calm Calm -- 29.70 in1005.8 mb 0.00 in0.0 mm 0.00 in0.0 mm 0.00 in0.0 mm
07:59 AM 12.0°F-11.1°C 5.5°F-14.7°C 75% Calm Calm -- 29.70 in1005.8 mb 0.00 in0.0 mm 0.00 in0.0 mm 0.00 in0.0 mm
08:04 AM 11.8°F-11.2°C 5.7°F-14.6°C 76% Calm Calm -- 29.72 in1006.4 mb 0.00 in0.0 mm 0.00 in0.0 mm 0.00 in0.0 mm
08:09 AM 11.7°F-11.3°C 6.6°F-14.1°C 80% Calm Calm -- 29.70 in1005.8 mb 0.00 in0.0 mm 0.00 in0.0 mm 0.00 in0.0 mm
08:14 AM 11.8°F-11.2°C 6.6°F-14.1°C 79% Calm Calm -- 29.71 in1006.1 mb 0.00 in0.0 mm 0.00 in0.0 mm 0.00 in0.0 mm
08:19 AM 12.2°F-11.0°C 6.6°F-14.1°C 78% Calm Calm -- 29.71 in1006.1 mb 0.00 in0.0 mm 0.00 in0.0 mm 0.00 in0.0 mm
08:24 AM 13.6°F-10.2°C 8.1°F-13.3°C 78% Calm Calm -- 29.70 in1005.8 mb 0.00 in0.0 mm 0.00 in0.0 mm 0.00 in0.0 mm
08:29 AM 14.9°F-9.5°C 8.4°F-13.1°C 75% Calm Calm -- 29.71 in1006.1 mb 0.00 in0.0 mm 0.00 in0.0 mm 0.00 in0.0 mm
08:34 AM 16.3°F-8.7°C 8.6°F-13.0°C 71% Calm Calm -- 29.71 in1006.1 mb 0.00 in0.0 mm 0.00 in0.0 mm 0.00 in0.0 mm
08:39 AM 16.9°F-8.4°C 7.7°F-13.5°C 67% 0.7 mph S1.1 kmh S 1.1 mph1.8 kmh 29.71 in1006.1 mb 0.00 in0.0 mm 0.00 in0.0 mm 0.00 in0.0 mm
08:44 AM 17.6°F-8.0°C 7.9°F-13.4°C 65% 0.2 mph SW0.3 kmh SW 1.1 mph1.8 kmh 29.71 in1006.1 mb 0.00 in0.0 mm 0.00 in0.0 mm 0.00 in0.0 mm
08:49 AM 18.9°F-7.3°C 8.2°F-13.2°C 63% 0.2 mph SW0.3 kmh SW 1.1 mph1.8 kmh 29.72 in1006.4 mb 0.00 in0.0 mm 0.00 in0.0 mm 0.00 in0.0 mm
08:54 AM 19.9°F-6.7°C 8.6°F-13.0°C 61% 1.6 mph SSW2.6 kmh SSW 2.2 mph3.5 kmh 29.72 in1006.4 mb 0.00 in0.0 mm 0.00 in0.0 mm 0.00 in0.0 mm
08:59 AM 20.1°F-6.6°C 9.1°F-12.7°C 62% 0.9 mph SSW1.4 kmh SSW 1.1 mph1.8 kmh 29.72 in1006.4 mb 0.00 in0.0 mm 0.00 in0.0 mm 0.00 in0.0 mm
09:04 AM 20.8°F-6.2°C 8.8°F-12.9°C 59% 0.2 mph SSW0.3 kmh SSW 1.1 mph1.8 kmh 29.72 in1006.4 mb 0.00 in0.0 mm 0.00 in0.0 mm 0.00 in0.0 mm
09:09 AM 21.0°F-6.1°C 9.0°F-12.8°C 59% 0.7 mph SSW1.1 kmh SSW 1.1 mph1.8 kmh 29.73 in1006.8 mb 0.00 in0.0 mm 0.00 in0.0 mm 0.00 in0.0 mm
09:14 AM 20.8°F-6.2°C 8.2°F-13.2°C 58% 5.6 mph SW9.0 kmh SW 6.9 mph11.1 kmh 29.72 in1006.4 mb 0.00 in0.0 mm 0.00 in0.0 mm 0.00 in0.0 mm
09:19 AM 21.0°F-6.1°C 7.7°F-13.5°C 56% 2.9 mph SW4.7 kmh SW 4.5 mph7.2 kmh 29.72 in1006.4 mb 0.00 in0.0 mm 0.00 in0.0 mm 0.00 in0.0 mm
09:24 AM 21.9°F-5.6°C 7.7°F-13.5°C 54% 2.9 mph SW4.7 kmh SW 3.4 mph5.5 kmh 29.72 in1006.4 mb 0.00 in0.0 mm 0.00 in0.0 mm 0.00 in0.0 mm
09:29 AM 22.8°F-5.1°C 8.6°F-13.0°C 54% 1.6 mph SW2.6 kmh SW 3.4 mph5.5 kmh 29.72 in1006.4 mb 0.00 in0.0 mm 0.00 in0.0 mm 0.00 in0.0 mm
09:34 AM 21.7°F-5.7°C 8.1°F-13.3°C 55% 1.8 mph WSW2.9 kmh WSW 2.2 mph3.5 kmh 29.72 in1006.4 mb 0.00 in0.0 mm 0.00 in0.0 mm 0.00 in0.0 mm
09:39 AM 21.6°F-5.8°C 7.9°F-13.4°C 55% 0.4 mph SSW0.6 kmh SSW 1.1 mph1.8 kmh 29.72 in1006.4 mb 0.00 in0.0 mm 0.00 in0.0 mm 0.00 in0.0 mm
09:44 AM 21.9°F-5.6°C 7.7°F-13.5°C 54% 3.4 mph SW5.5 kmh SW 4.5 mph7.2 kmh 29.72 in1006.4 mb 0.00 in0.0 mm 0.00 in0.0 mm 0.00 in0.0 mm
09:49 AM 22.3°F-5.4°C 7.7°F-13.5°C 53% 0.7 mph SE1.1 kmh SE 1.1 mph1.8 kmh 29.73 in1006.8 mb 0.00 in0.0 mm 0.00 in0.0 mm 0.00 in0.0 mm
09:54 AM 22.3°F-5.4°C 7.7°F-13.5°C 53% 3.8 mph SW6.1 kmh SW 5.8 mph9.3 kmh 29.72 in1006.4 mb 0.00 in0.0 mm 0.00 in0.0 mm 0.00 in0.0 mm
09:59 AM 22.3°F-5.4°C 7.7°F-13.5°C 53% 1.3 mph SSW2.1 kmh SSW 3.4 mph5.5 kmh 29.72 in1006.4 mb 0.00 in0.0 mm 0.00 in0.0 mm 0.00 in0.0 mm
10:04 AM 22.8°F-5.1°C 7.9°F-13.4°C 52% 0.9 mph NW1.4 kmh NW 1.1 mph1.8 kmh 29.72 in1006.4 mb 0.00 in0.0 mm 0.00 in0.0 mm 0.00 in0.0 mm
10:09 AM 22.5°F-5.3°C 7.5°F-13.6°C 52% 2.5 mph SW4.0 kmh SW 3.4 mph5.5 kmh 29.73 in1006.8 mb 0.00 in0.0 mm 0.00 in0.0 mm 0.00 in0.0 mm
10:14 AM 22.5°F-5.3°C 8.2°F-13.2°C 54% 0.2 mph SW0.3 kmh SW 1.1 mph1.8 kmh 29.71 in1006.1 mb 0.00 in0.0 mm 0.00 in0.0 mm 0.00 in0.0 mm
10:19 AM 22.6°F-5.2°C 8.1°F-13.3°C 53% 0.9 mph S1.4 kmh S 2.2 mph3.5 kmh 29.72 in1006.4 mb 0.00 in0.0 mm 0.00 in0.0 mm 0.00 in0.0 mm
10:24 AM 22.3°F-5.4°C 7.7°F-13.5°C 53% 0.7 mph SW1.1 kmh SW 2.2 mph3.5 kmh 29.71 in1006.1 mb 0.00 in0.0 mm 0.00 in0.0 mm 0.00 in0.0 mm
10:29 AM 22.3°F-5.4°C 7.3°F-13.7°C 52% 0.7 mph SE1.1 kmh SE 1.1 mph1.8 kmh 29.72 in1006.4 mb 0.00 in0.0 mm 0.00 in0.0 mm 0.00 in0.0 mm
10:34 AM 22.5°F-5.3°C 7.5°F-13.6°C 52% 3.6 mph SW5.8 kmh SW 5.8 mph9.3 kmh 29.72 in1006.4 mb 0.00 in0.0 mm 0.00 in0.0 mm 0.00 in0.0 mm
10:39 AM 22.3°F-5.4°C 7.7°F-13.5°C 53% 0.7 mph E1.1 kmh E 1.1 mph1.8 kmh 29.71 in1006.1 mb 0.00 in0.0 mm 0.00 in0.0 mm 0.00 in0.0 mm
10:44 AM 22.6°F-5.2°C 8.1°F-13.3°C 53% 1.8 mph SSW2.9 kmh SSW 3.4 mph5.5 kmh 29.71 in1006.1 mb 0.00 in0.0 mm 0.00 in0.0 mm 0.00 in0.0 mm
10:49 AM 22.8°F-5.1°C 8.2°F-13.2°C 53% 1.3 mph S2.1 kmh S 2.2 mph3.5 kmh 29.71 in1006.1 mb 0.00 in0.0 mm 0.00 in0.0 mm 0.00 in0.0 mm
10:54 AM 23.7°F-4.6°C 8.2°F-13.2°C 51% 0.7 mph SE1.1 kmh SE 1.1 mph1.8 kmh 29.70 in1005.8 mb 0.00 in0.0 mm 0.00 in0.0 mm 0.00 in0.0 mm
10:59 AM 24.6°F-4.1°C 8.2°F-13.2°C 49% 2.9 mph SSW4.7 kmh SSW 3.4 mph5.5 kmh 29.71 in1006.1 mb 0.00 in0.0 mm 0.00 in0.0 mm 0.00 in0.0 mm
11:04 AM 25.3°F-3.7°C 8.8°F-12.9°C 49% 1.3 mph NE2.1 kmh NE 2.2 mph3.5 kmh 29.70 in1005.8 mb 0.00 in0.0 mm 0.00 in0.0 mm 0.00 in0.0 mm
11:09 AM 25.9°F-3.4°C 8.8°F-12.9°C 48% 0.2 mph ESE0.3 kmh ESE 1.1 mph1.8 kmh 29.71 in1006.1 mb 0.00 in0.0 mm 0.00 in0.0 mm 0.00 in0.0 mm
11:14 AM 25.7°F-3.5°C 9.1°F-12.7°C 49% 1.1 mph ENE1.8 kmh ENE 2.2 mph3.5 kmh 29.71 in1006.1 mb 0.00 in0.0 mm 0.00 in0.0 mm 0.00 in0.0 mm
11:19 AM 26.1°F-3.3°C 9.0°F-12.8°C 48% 1.3 mph SE2.1 kmh SE 2.2 mph3.5 kmh 29.71 in1006.1 mb 0.00 in0.0 mm 0.00 in0.0 mm 0.00 in0.0 mm
11:24 AM 26.1°F-3.3°C 8.6°F-13.0°C 47% 2.5 mph WSW4.0 kmh WSW 4.5 mph7.2 kmh 29.71 in1006.1 mb 0.00 in0.0 mm 0.00 in0.0 mm 0.00 in0.0 mm
11:29 AM 26.4°F-3.1°C 9.9°F-12.3°C 49% 1.3 mph NE2.1 kmh NE 3.4 mph5.5 kmh 29.71 in1006.1 mb 0.00 in0.0 mm 0.00 in0.0 mm 0.00 in0.0 mm
11:34 AM 26.2°F-3.2°C 9.1°F-12.7°C 48% 1.1 mph NE1.8 kmh NE 3.4 mph5.5 kmh 29.71 in1006.1 mb 0.00 in0.0 mm 0.00 in0.0 mm 0.00 in0.0 mm
11:39 AM 26.6°F-3.0°C 9.5°F-12.5°C 48% 2.2 mph NE3.5 kmh NE 3.4 mph5.5 kmh 29.71 in1006.1 mb 0.00 in0.0 mm 0.00 in0.0 mm 0.00 in0.0 mm
11:44 AM 27.1°F-2.7°C 9.5°F-12.5°C 47% 0.9 mph SSE1.4 kmh SSE 1.1 mph1.8 kmh 29.70 in1005.8 mb 0.00 in0.0 mm 0.00 in0.0 mm 0.00 in0.0 mm
11:49 AM 27.3°F-2.6°C 9.7°F-12.4°C 47% 1.3 mph SSE2.1 kmh SSE 2.2 mph3.5 kmh 29.70 in1005.8 mb 0.00 in0.0 mm 0.00 in0.0 mm 0.00 in0.0 mm
11:54 AM 27.1°F-2.7°C 10.0°F-12.2°C 48% 1.8 mph NE2.9 kmh NE 3.4 mph5.5 kmh 29.70 in1005.8 mb 0.00 in0.0 mm 0.00 in0.0 mm 0.00 in0.0 mm
11:59 AM 27.0°F-2.8°C 9.9°F-12.3°C 48% 2.5 mph NE4.0 kmh NE 4.5 mph7.2 kmh 29.70 in1005.8 mb 0.00 in0.0 mm 0.00 in0.0 mm 0.00 in0.0 mm
12:04 PM 26.8°F-2.9°C 9.7°F-12.4°C 48% 1.3 mph S2.1 kmh S 2.2 mph3.5 kmh 29.70 in1005.8 mb 0.00 in0.0 mm 0.00 in0.0 mm 0.00 in0.0 mm
12:09 PM 27.5°F-2.5°C 10.4°F-12.0°C 48% 1.6 mph NE2.6 kmh NE 2.2 mph3.5 kmh 29.70 in1005.8 mb 0.00 in0.0 mm 0.00 in0.0 mm 0.00 in0.0 mm
12:14 PM 28.4°F-2.0°C 10.8°F-11.8°C 47% 0.7 mph S1.1 kmh S 1.1 mph1.8 kmh 29.70 in1005.8 mb 0.00 in0.0 mm 0.00 in0.0 mm 0.00 in0.0 mm
12:19 PM 28.2°F-2.1°C 10.0°F-12.2°C 46% 2.5 mph NE4.0 kmh NE 3.4 mph5.5 kmh 29.70 in1005.8 mb 0.00 in0.0 mm 0.00 in0.0 mm 0.00 in0.0 mm
12:24 PM 28.2°F-2.1°C 10.6°F-11.9°C 47% 1.1 mph NE1.8 kmh NE 1.1 mph1.8 kmh 29.70 in1005.8 mb 0.00 in0.0 mm 0.00 in0.0 mm 0.00 in0.0 mm
12:29 PM 28.8°F-1.8°C 10.0°F-12.2°C 45% 0.9 mph NE1.4 kmh NE 1.1 mph1.8 kmh 29.70 in1005.8 mb 0.00 in0.0 mm 0.00 in0.0 mm 0.00 in0.0 mm
12:34 PM 28.8°F-1.8°C 10.6°F-11.9°C 46% 2.2 mph ENE3.5 kmh ENE 4.5 mph7.2 kmh 29.70 in1005.8 mb 0.00 in0.0 mm 0.00 in0.0 mm 0.00 in0.0 mm
12:39 PM 29.5°F-1.4°C 10.8°F-11.8°C 45% 0.9 mph E1.4 kmh E 1.1 mph1.8 kmh 29.70 in1005.8 mb 0.00 in0.0 mm 0.00 in0.0 mm 0.00 in0.0 mm
12:44 PM 29.8°F-1.2°C 11.5°F-11.4°C 46% 2.2 mph NE3.5 kmh NE 3.4 mph5.5 kmh 29.69 in1005.4 mb 0.00 in0.0 mm 0.00 in0.0 mm 0.00 in0.0 mm
12:49 PM 29.7°F-1.3°C 10.9°F-11.7°C 45% 2.2 mph SSW3.5 kmh SSW 3.4 mph5.5 kmh 29.69 in1005.4 mb 0.00 in0.0 mm 0.00 in0.0 mm 0.00 in0.0 mm
12:54 PM 30.9°F-0.6°C 12.0°F-11.1°C 45% 1.3 mph NE2.1 kmh NE 2.2 mph3.5 kmh 29.69 in1005.4 mb 0.00 in0.0 mm 0.00 in0.0 mm 0.00 in0.0 mm
12:59 PM 30.6°F-0.8°C 11.3°F-11.5°C 44% 0.9 mph E1.4 kmh E 1.1 mph1.8 kmh 29.69 in1005.4 mb 0.00 in0.0 mm 0.00 in0.0 mm 0.00 in0.0 mm
01:04 PM 30.2°F-1.0°C 10.9°F-11.7°C 44% 0.9 mph S1.4 kmh S 1.1 mph1.8 kmh 29.69 in1005.4 mb 0.00 in0.0 mm 0.00 in0.0 mm 0.00 in0.0 mm
01:09 PM 30.0°F-1.1°C 10.8°F-11.8°C 44% 0.9 mph ENE1.4 kmh ENE 1.1 mph1.8 kmh 29.68 in1005.1 mb 0.00 in0.0 mm 0.00 in0.0 mm 0.00 in0.0 mm
01:14 PM 30.7°F-0.7°C 11.8°F-11.2°C 45% 1.3 mph NE2.1 kmh NE 3.4 mph5.5 kmh 29.68 in1005.1 mb 0.00 in0.0 mm 0.00 in0.0 mm 0.00 in0.0 mm
01:19 PM 30.2°F-1.0°C 11.5°F-11.4°C 45% 3.1 mph NE5.0 kmh NE 4.5 mph7.2 kmh 29.68 in1005.1 mb 0.00 in0.0 mm 0.00 in0.0 mm 0.00 in0.0 mm
01:24 PM 30.4°F-0.9°C 10.6°F-11.9°C 43% 1.8 mph S2.9 kmh S 3.4 mph5.5 kmh 29.67 in1004.7 mb 0.00 in0.0 mm 0.00 in0.0 mm 0.00 in0.0 mm
01:29 PM 30.2°F-1.0°C 10.9°F-11.7°C 44% 0.7 mph ENE1.1 kmh ENE 2.2 mph3.5 kmh 29.68 in1005.1 mb 0.00 in0.0 mm 0.00 in0.0 mm 0.00 in0.0 mm
01:34 PM 29.7°F-1.3°C 10.9°F-11.7°C 45% 0.9 mph E1.4 kmh E 1.1 mph1.8 kmh 29.67 in1004.7 mb 0.00 in0.0 mm 0.00 in0.0 mm 0.00 in0.0 mm
01:39 PM 31.1°F-0.5°C 11.7°F-11.3°C 44% 1.8 mph E2.9 kmh E 3.4 mph5.5 kmh 29.67 in1004.7 mb 0.00 in0.0 mm 0.00 in0.0 mm 0.00 in0.0 mm
01:44 PM 30.2°F-1.0°C 11.5°F-11.4°C 45% Calm Calm -- 29.68 in1005.1 mb 0.00 in0.0 mm 0.00 in0.0 mm 0.00 in0.0 mm
01:49 PM 31.6°F-0.2°C 12.2°F-11.0°C 44% 0.7 mph ENE1.1 kmh ENE 1.1 mph1.8 kmh 29.67 in1004.7 mb 0.00 in0.0 mm 0.00 in0.0 mm 0.00 in0.0 mm
01:54 PM 31.5°F-0.3°C 11.5°F-11.4°C 43% 1.6 mph ENE2.6 kmh ENE 2.2 mph3.5 kmh 29.67 in1004.7 mb 0.00 in0.0 mm 0.00 in0.0 mm 0.00 in0.0 mm
01:59 PM 30.6°F-0.8°C 11.3°F-11.5°C 44% 0.9 mph E1.4 kmh E 1.1 mph1.8 kmh 29.67 in1004.7 mb 0.00 in0.0 mm 0.00 in0.0 mm 0.00 in0.0 mm
02:04 PM 30.9°F-0.6°C 11.5°F-11.4°C 44% 1.3 mph NE2.1 kmh NE 2.2 mph3.5 kmh 29.67 in1004.7 mb 0.00 in0.0 mm 0.00 in0.0 mm 0.00 in0.0 mm
02:09 PM 30.4°F-0.9°C 11.5°F-11.4°C 45% 0.9 mph NE1.4 kmh NE 2.2 mph3.5 kmh 29.67 in1004.7 mb 0.00 in0.0 mm 0.00 in0.0 mm 0.00 in0.0 mm
02:14 PM 31.1°F-0.5°C 11.7°F-11.3°C 44% 1.3 mph ENE2.1 kmh ENE 2.2 mph3.5 kmh 29.66 in1004.4 mb 0.00 in0.0 mm 0.00 in0.0 mm 0.00 in0.0 mm
02:19 PM 31.1°F-0.5°C 11.7°F-11.3°C 44% 0.7 mph SSE1.1 kmh SSE 1.1 mph1.8 kmh 29.67 in1004.7 mb 0.00 in0.0 mm 0.00 in0.0 mm 0.00 in0.0 mm
02:24 PM 31.6°F-0.2°C 11.7°F-11.3°C 43% 1.3 mph SE2.1 kmh SE 2.2 mph3.5 kmh 29.67 in1004.7 mb 0.00 in0.0 mm 0.00 in0.0 mm 0.00 in0.0 mm
02:29 PM 31.1°F-0.5°C 11.7°F-11.3°C 44% 1.8 mph SSW2.9 kmh SSW 2.2 mph3.5 kmh 29.67 in1004.7 mb 0.00 in0.0 mm 0.00 in0.0 mm 0.00 in0.0 mm
02:34 PM 31.6°F-0.2°C 11.7°F-11.3°C 43% 2.0 mph NE3.2 kmh NE 2.2 mph3.5 kmh 29.67 in1004.7 mb 0.00 in0.0 mm 0.00 in0.0 mm 0.00 in0.0 mm
02:39 PM 31.5°F-0.3°C 12.0°F-11.1°C 44% 1.3 mph SW2.1 kmh SW 2.2 mph3.5 kmh 29.66 in1004.4 mb 0.00 in0.0 mm 0.00 in0.0 mm 0.00 in0.0 mm
02:44 PM 31.3°F-0.4°C 11.8°F-11.2°C 44% 4.9 mph ENE7.9 kmh ENE 6.9 mph11.1 kmh 29.66 in1004.4 mb 0.00 in0.0 mm 0.00 in0.0 mm 0.00 in0.0 mm
02:49 PM 31.3°F-0.4°C 11.8°F-11.2°C 44% 0.7 mph SE1.1 kmh SE 1.1 mph1.8 kmh 29.66 in1004.4 mb 0.00 in0.0 mm 0.00 in0.0 mm 0.00 in0.0 mm
02:54 PM 30.7°F-0.7°C 11.8°F-11.2°C 45% 2.9 mph NE4.7 kmh NE 4.5 mph7.2 kmh 29.66 in1004.4 mb 0.00 in0.0 mm 0.00 in0.0 mm 0.00 in0.0 mm
02:59 PM 32.7°F0.4°C 12.7°F-10.7°C 43% 0.9 mph N1.4 kmh N 2.2 mph3.5 kmh 29.66 in1004.4 mb 0.00 in0.0 mm 0.00 in0.0 mm 0.00 in0.0 mm
03:04 PM 31.6°F-0.2°C 12.7°F-10.7°C 45% 2.7 mph NNE4.3 kmh NNE 4.5 mph7.2 kmh 29.67 in1004.7 mb 0.00 in0.0 mm 0.00 in0.0 mm 0.00 in0.0 mm
03:09 PM 31.6°F-0.2°C 12.7°F-10.7°C 45% 2.2 mph NE3.5 kmh NE 3.4 mph5.5 kmh 29.66 in1004.4 mb 0.00 in0.0 mm 0.00 in0.0 mm 0.00 in0.0 mm
03:14 PM 31.6°F-0.2°C 12.7°F-10.7°C 45% 0.7 mph SSE1.1 kmh SSE 2.2 mph3.5 kmh 29.66 in1004.4 mb 0.00 in0.0 mm 0.00 in0.0 mm 0.00 in0.0 mm
03:19 PM 32.0°F0.0°C 13.1°F-10.5°C 45% 1.1 mph S1.8 kmh S 2.2 mph3.5 kmh 29.66 in1004.4 mb 0.00 in0.0 mm 0.00 in0.0 mm 0.00 in0.0 mm
03:24 PM 32.7°F0.4°C 13.3°F-10.4°C 44% 0.7 mph SSE1.1 kmh SSE 1.1 mph1.8 kmh 29.66 in1004.4 mb 0.00 in0.0 mm 0.00 in0.0 mm 0.00 in0.0 mm
03:29 PM 32.2°F0.1°C 13.3°F-10.4°C 45% 1.3 mph E2.1 kmh E 2.2 mph3.5 kmh 29.66 in1004.4 mb 0.00 in0.0 mm 0.00 in0.0 mm 0.00 in0.0 mm
03:34 PM 32.7°F0.4°C 13.3°F-10.4°C 44% 2.0 mph SW3.2 kmh SW 3.4 mph5.5 kmh 29.66 in1004.4 mb 0.00 in0.0 mm 0.00 in0.0 mm 0.00 in0.0 mm
03:39 PM 33.3°F0.7°C 13.1°F-10.5°C 43% 2.0 mph NE3.2 kmh NE 3.4 mph5.5 kmh 29.66 in1004.4 mb 0.00 in0.0 mm 0.00 in0.0 mm 0.00 in0.0 mm
03:44 PM 31.6°F-0.2°C 12.7°F-10.7°C 45% 0.2 mph ENE0.3 kmh ENE 1.1 mph1.8 kmh 29.67 in1004.7 mb 0.00 in0.0 mm 0.00 in0.0 mm 0.00 in0.0 mm
03:49 PM 31.8°F-0.1°C 12.9°F-10.6°C 45% 2.5 mph ENE4.0 kmh ENE 4.5 mph7.2 kmh 29.67 in1004.7 mb 0.00 in0.0 mm 0.00 in0.0 mm 0.00 in0.0 mm
03:54 PM 31.1°F-0.5°C 12.2°F-11.0°C 45% 0.9 mph ENE1.4 kmh ENE 1.1 mph1.8 kmh 29.67 in1004.7 mb 0.00 in0.0 mm 0.00 in0.0 mm 0.00 in0.0 mm
03:59 PM 31.5°F-0.3°C 12.6°F-10.8°C 45% 1.1 mph ESE1.8 kmh ESE 1.1 mph1.8 kmh 29.68 in1005.1 mb 0.00 in0.0 mm 0.00 in0.0 mm 0.00 in0.0 mm
04:04 PM 32.0°F0.0°C 13.1°F-10.5°C 45% 0.9 mph ENE1.4 kmh ENE 2.2 mph3.5 kmh 29.67 in1004.7 mb 0.00 in0.0 mm 0.00 in0.0 mm 0.00 in0.0 mm
04:09 PM 32.4°F0.2°C 13.8°F-10.1°C 46% 0.2 mph E0.3 kmh E 1.1 mph1.8 kmh 29.68 in1005.1 mb 0.00 in0.0 mm 0.00 in0.0 mm 0.00 in0.0 mm
04:14 PM 32.2°F0.1°C 13.6°F-10.2°C 46% 0.4 mph SE0.6 kmh SE 1.1 mph1.8 kmh 29.68 in1005.1 mb 0.00 in0.0 mm 0.00 in0.0 mm 0.00 in0.0 mm
04:19 PM 31.8°F-0.1°C 13.3°F-10.4°C 46% 0.9 mph ENE1.4 kmh ENE 1.1 mph1.8 kmh 29.68 in1005.1 mb 0.00 in0.0 mm 0.00 in0.0 mm 0.00 in0.0 mm
04:24 PM 31.8°F-0.1°C 13.3°F-10.4°C 46% 0.7 mph ENE1.1 kmh ENE 1.1 mph1.8 kmh 29.69 in1005.4 mb 0.00 in0.0 mm 0.00 in0.0 mm 0.00 in0.0 mm
04:29 PM 32.2°F0.1°C 13.6°F-10.2°C 46% 0.2 mph ENE0.3 kmh ENE 1.1 mph1.8 kmh 29.68 in1005.1 mb 0.00 in0.0 mm 0.00 in0.0 mm 0.00 in0.0 mm
04:34 PM 32.0°F0.0°C 13.5°F-10.3°C 46% Calm Calm -- 29.68 in1005.1 mb 0.00 in0.0 mm 0.00 in0.0 mm 0.00 in0.0 mm
04:39 PM 32.7°F0.4°C 13.6°F-10.2°C 45% Calm Calm -- 29.69 in1005.4 mb 0.00 in0.0 mm 0.00 in0.0 mm 0.00 in0.0 mm
04:44 PM 32.0°F0.0°C 13.5°F-10.3°C 46% Calm Calm -- 29.69 in1005.4 mb 0.00 in0.0 mm 0.00 in0.0 mm 0.00 in0.0 mm
04:49 PM 31.8°F-0.1°C 13.3°F-10.4°C 46% 1.6 mph ENE2.6 kmh ENE 4.5 mph7.2 kmh 29.70 in1005.8 mb 0.00 in0.0 mm 0.00 in0.0 mm 0.00 in0.0 mm
04:54 PM 31.8°F-0.1°C 13.3°F-10.4°C 46% Calm Calm -- 29.70 in1005.8 mb 0.00 in0.0 mm 0.00 in0.0 mm 0.00 in0.0 mm
04:59 PM 31.6°F-0.2°C 13.6°F-10.2°C 47% 0.2 mph ENE0.3 kmh ENE 1.1 mph1.8 kmh 29.69 in1005.4 mb 0.00 in0.0 mm 0.00 in0.0 mm 0.00 in0.0 mm
05:04 PM 32.0°F0.0°C 14.0°F-10.0°C 47% 0.7 mph E1.1 kmh E 1.1 mph1.8 kmh 29.70 in1005.8 mb 0.00 in0.0 mm 0.00 in0.0 mm 0.00 in0.0 mm
05:09 PM 31.8°F-0.1°C 13.3°F-10.4°C 46% 1.6 mph NE2.6 kmh NE 2.2 mph3.5 kmh 29.70 in1005.8 mb 0.00 in0.0 mm 0.00 in0.0 mm 0.00 in0.0 mm
05:14 PM 31.6°F-0.2°C 13.6°F-10.2°C 47% 2.5 mph E4.0 kmh E 3.4 mph5.5 kmh 29.70 in1005.8 mb 0.00 in0.0 mm 0.00 in0.0 mm 0.00 in0.0 mm
05:19 PM 31.3°F-0.4°C 13.3°F-10.4°C 47% 0.7 mph ENE1.1 kmh ENE 1.1 mph1.8 kmh 29.71 in1006.1 mb 0.00 in0.0 mm 0.00 in0.0 mm 0.00 in0.0 mm
05:24 PM 31.5°F-0.3°C 13.5°F-10.3°C 47% 1.8 mph ENE2.9 kmh ENE 2.2 mph3.5 kmh 29.70 in1005.8 mb 0.00 in0.0 mm 0.00 in0.0 mm 0.00 in0.0 mm
05:29 PM 31.5°F-0.3°C 14.0°F-10.0°C 48% 1.6 mph ENE2.6 kmh ENE 3.4 mph5.5 kmh 29.71 in1006.1 mb 0.00 in0.0 mm 0.00 in0.0 mm 0.00 in0.0 mm
05:34 PM 31.5°F-0.3°C 14.0°F-10.0°C 48% 1.6 mph ENE2.6 kmh ENE 3.4 mph5.5 kmh 29.72 in1006.4 mb 0.00 in0.0 mm 0.00 in0.0 mm 0.00 in0.0 mm
05:39 PM 31.5°F-0.3°C 13.5°F-10.3°C 47% 2.7 mph NE4.3 kmh NE 4.5 mph7.2 kmh 29.72 in1006.4 mb 0.00 in0.0 mm 0.00 in0.0 mm 0.00 in0.0 mm
05:44 PM 31.3°F-0.4°C 13.8°F-10.1°C 48% 1.3 mph NE2.1 kmh NE 2.2 mph3.5 kmh 29.71 in1006.1 mb 0.00 in0.0 mm 0.00 in0.0 mm 0.00 in0.0 mm
05:49 PM 31.1°F-0.5°C 13.6°F-10.2°C 48% 2.2 mph NE3.5 kmh NE 3.4 mph5.5 kmh 29.72 in1006.4 mb 0.00 in0.0 mm 0.00 in0.0 mm 0.00 in0.0 mm
05:54 PM 30.7°F-0.7°C 13.3°F-10.4°C 48% 2.2 mph NE3.5 kmh NE 3.4 mph5.5 kmh 29.71 in1006.1 mb 0.00 in0.0 mm 0.00 in0.0 mm 0.00 in0.0 mm
05:59 PM 30.7°F-0.7°C 13.3°F-10.4°C 48% Calm Calm -- 29.72 in1006.4 mb 0.00 in0.0 mm 0.00 in0.0 mm 0.00 in0.0 mm
06:04 PM 30.6°F-0.8°C 13.6°F-10.2°C 49% 4.3 mph NE6.9 kmh NE 5.8 mph9.3 kmh 29.72 in1006.4 mb 0.00 in0.0 mm 0.00 in0.0 mm 0.00 in0.0 mm
06:09 PM 30.4°F-0.9°C 13.5°F-10.3°C 49% 0.7 mph ENE1.1 kmh ENE 1.1 mph1.8 kmh 29.72 in1006.4 mb 0.00 in0.0 mm 0.00 in0.0 mm 0.00 in0.0 mm
06:14 PM 30.0°F-1.1°C 13.6°F-10.2°C 50% 0.7 mph ENE1.1 kmh ENE 1.1 mph1.8 kmh 29.72 in1006.4 mb 0.00 in0.0 mm 0.00 in0.0 mm 0.00 in0.0 mm
06:19 PM 30.0°F-1.1°C 13.6°F-10.2°C 50% 0.9 mph NE1.4 kmh NE 1.1 mph1.8 kmh 29.72 in1006.4 mb 0.00 in0.0 mm 0.00 in0.0 mm 0.00 in0.0 mm
06:24 PM 30.0°F-1.1°C 13.6°F-10.2°C 50% 2.2 mph NE3.5 kmh NE 3.4 mph5.5 kmh 29.73 in1006.8 mb 0.00 in0.0 mm 0.00 in0.0 mm 0.00 in0.0 mm
06:29 PM 29.8°F-1.2°C 13.8°F-10.1°C 51% 0.2 mph ENE0.3 kmh ENE 1.1 mph1.8 kmh 29.74 in1007.1 mb 0.00 in0.0 mm 0.00 in0.0 mm 0.00 in0.0 mm
06:34 PM 29.7°F-1.3°C 13.6°F-10.2°C 51% 0.7 mph ENE1.1 kmh ENE 1.1 mph1.8 kmh 29.73 in1006.8 mb 0.00 in0.0 mm 0.00 in0.0 mm 0.00 in0.0 mm
06:39 PM 29.8°F-1.2°C 13.8°F-10.1°C 51% Calm Calm -- 29.73 in1006.8 mb 0.00 in0.0 mm 0.00 in0.0 mm 0.00 in0.0 mm
06:44 PM 28.9°F-1.7°C 14.7°F-9.6°C 55% 0.2 mph E0.3 kmh E 1.1 mph1.8 kmh 29.74 in1007.1 mb 0.00 in0.0 mm 0.00 in0.0 mm 0.00 in0.0 mm
06:49 PM 28.0°F-2.2°C 14.7°F-9.6°C 57% 0.9 mph E1.4 kmh E 1.1 mph1.8 kmh 29.74 in1007.1 mb 0.00 in0.0 mm 0.00 in0.0 mm 0.00 in0.0 mm
06:54 PM 27.9°F-2.3°C 14.5°F-9.7°C 57% 0.9 mph E1.4 kmh E 1.1 mph1.8 kmh 29.74 in1007.1 mb 0.00 in0.0 mm 0.00 in0.0 mm 0.00 in0.0 mm
06:59 PM 27.9°F-2.3°C 15.4°F-9.2°C 59% 0.7 mph E1.1 kmh E 1.1 mph1.8 kmh 29.74 in1007.1 mb 0.00 in0.0 mm 0.00 in0.0 mm 0.00 in0.0 mm
07:04 PM 28.2°F-2.1°C 14.9°F-9.5°C 57% 0.7 mph E1.1 kmh E 1.1 mph1.8 kmh 29.75 in1007.5 mb 0.00 in0.0 mm 0.00 in0.0 mm 0.00 in0.0 mm
07:09 PM 28.4°F-2.0°C 14.7°F-9.6°C 56% Calm Calm -- 29.75 in1007.5 mb 0.00 in0.0 mm 0.00 in0.0 mm 0.00 in0.0 mm
07:14 PM 28.8°F-1.8°C 14.5°F-9.7°C 55% Calm Calm -- 29.76 in1007.8 mb 0.00 in0.0 mm 0.00 in0.0 mm 0.00 in0.0 mm
07:19 PM 28.8°F-1.8°C 15.4°F-9.2°C 57% Calm Calm -- 29.76 in1007.8 mb 0.00 in0.0 mm 0.00 in0.0 mm 0.00 in0.0 mm
07:24 PM 28.8°F-1.8°C 15.4°F-9.2°C 57% Calm Calm -- 29.76 in1007.8 mb 0.00 in0.0 mm 0.00 in0.0 mm 0.00 in0.0 mm
07:29 PM 28.8°F-1.8°C 15.8°F-9.0°C 58% Calm Calm -- 29.76 in1007.8 mb 0.00 in0.0 mm 0.00 in0.0 mm 0.00 in0.0 mm
07:34 PM 28.8°F-1.8°C 15.8°F-9.0°C 58% Calm Calm -- 29.76 in1007.8 mb 0.00 in0.0 mm 0.00 in0.0 mm 0.00 in0.0 mm
07:39 PM 28.8°F-1.8°C 15.8°F-9.0°C 58% Calm Calm -- 29.76 in1007.8 mb 0.00 in0.0 mm 0.00 in0.0 mm 0.00 in0.0 mm
07:44 PM 28.8°F-1.8°C 16.2°F-8.8°C 59% Calm Calm -- 29.76 in1007.8 mb 0.00 in0.0 mm 0.00 in0.0 mm 0.00 in0.0 mm
07:49 PM 28.6°F-1.9°C 15.6°F-9.1°C 58% Calm Calm -- 29.76 in1007.8 mb 0.00 in0.0 mm 0.00 in0.0 mm 0.00 in0.0 mm
07:54 PM 28.6°F-1.9°C 15.3°F-9.3°C 57% Calm Calm -- 29.76 in1007.8 mb 0.00 in0.0 mm 0.00 in0.0 mm 0.00 in0.0 mm
07:59 PM 28.8°F-1.8°C 15.4°F-9.2°C 57% Calm Calm -- 29.77 in1008.1 mb 0.00 in0.0 mm 0.00 in0.0 mm 0.00 in0.0 mm
08:04 PM 28.8°F-1.8°C 14.2°F-9.9°C 54% Calm Calm -- 29.77 in1008.1 mb 0.00 in0.0 mm 0.00 in0.0 mm 0.00 in0.0 mm
08:09 PM 28.9°F-1.7°C 15.6°F-9.1°C 57% Calm Calm -- 29.77 in1008.1 mb 0.00 in0.0 mm 0.00 in0.0 mm 0.00 in0.0 mm
08:14 PM 28.8°F-1.8°C 16.2°F-8.8°C 59% Calm Calm -- 29.77 in1008.1 mb 0.00 in0.0 mm 0.00 in0.0 mm 0.00 in0.0 mm
08:19 PM 28.6°F-1.9°C 16.5°F-8.6°C 60% Calm Calm -- 29.77 in1008.1 mb 0.00 in0.0 mm 0.00 in0.0 mm 0.00 in0.0 mm
08:24 PM 28.6°F-1.9°C 15.3°F-9.3°C 57% Calm Calm -- 29.77 in1008.1 mb 0.00 in0.0 mm 0.00 in0.0 mm 0.00 in0.0 mm
08:29 PM 28.6°F-1.9°C 15.6°F-9.1°C 58% Calm Calm -- 29.77 in1008.1 mb 0.00 in0.0 mm 0.00 in0.0 mm 0.00 in0.0 mm
08:34 PM 28.9°F-1.7°C 15.3°F-9.3°C 56% Calm Calm -- 29.77 in1008.1 mb 0.00 in0.0 mm 0.00 in0.0 mm 0.00 in0.0 mm
08:39 PM 28.9°F-1.7°C 16.7°F-8.5°C 60% Calm Calm -- 29.77 in1008.1 mb 0.00 in0.0 mm 0.00 in0.0 mm 0.00 in0.0 mm
08:44 PM 28.8°F-1.8°C 16.7°F-8.5°C 60% Calm Calm -- 29.77 in1008.1 mb 0.00 in0.0 mm 0.00 in0.0 mm 0.00 in0.0 mm
08:49 PM 28.8°F-1.8°C 18.9°F-7.3°C 66% Calm Calm -- 29.78 in1008.5 mb 0.00 in0.0 mm 0.00 in0.0 mm 0.00 in0.0 mm
08:54 PM 28.4°F-2.0°C 16.7°F-8.5°C 61% Calm Calm -- 29.78 in1008.5 mb 0.00 in0.0 mm 0.00 in0.0 mm 0.00 in0.0 mm
08:59 PM 28.4°F-2.0°C 17.4°F-8.1°C 63% Calm Calm -- 29.78 in1008.5 mb 0.00 in0.0 mm 0.00 in0.0 mm 0.00 in0.0 mm
09:04 PM 28.9°F-1.7°C 18.0°F-7.8°C 63% 4.5 mph NE7.2 kmh NE 6.9 mph11.1 kmh 29.78 in1008.5 mb 0.00 in0.0 mm 0.00 in0.0 mm 0.00 in0.0 mm
09:09 PM 28.4°F-2.0°C 18.5°F-7.5°C 66% 1.8 mph E2.9 kmh E 3.4 mph5.5 kmh 29.78 in1008.5 mb 0.00 in0.0 mm 0.00 in0.0 mm 0.00 in0.0 mm
09:14 PM 28.4°F-2.0°C 18.5°F-7.5°C 66% 4.3 mph NE6.9 kmh NE 4.5 mph7.2 kmh 29.79 in1008.8 mb 0.00 in0.0 mm 0.00 in0.0 mm 0.00 in0.0 mm
09:19 PM 28.2°F-2.1°C 18.7°F-7.4°C 67% 3.6 mph NE5.8 kmh NE 4.5 mph7.2 kmh 29.78 in1008.5 mb 0.00 in0.0 mm 0.00 in0.0 mm 0.00 in0.0 mm
09:24 PM 28.0°F-2.2°C 18.5°F-7.5°C 67% 1.1 mph E1.8 kmh E 3.4 mph5.5 kmh 29.79 in1008.8 mb 0.00 in0.0 mm 0.00 in0.0 mm 0.00 in0.0 mm
09:29 PM 27.9°F-2.3°C 18.3°F-7.6°C 67% 2.5 mph ENE4.0 kmh ENE 3.4 mph5.5 kmh 29.80 in1009.1 mb 0.00 in0.0 mm 0.00 in0.0 mm 0.00 in0.0 mm
09:34 PM 27.1°F-2.7°C 18.3°F-7.6°C 69% 5.8 mph NE9.3 kmh NE 8.1 mph13.0 kmh 29.80 in1009.1 mb 0.00 in0.0 mm 0.00 in0.0 mm 0.00 in0.0 mm
09:39 PM 26.4°F-3.1°C 18.3°F-7.6°C 71% 4.0 mph NE6.4 kmh NE 8.1 mph13.0 kmh 29.79 in1008.8 mb 0.00 in0.0 mm 0.00 in0.0 mm 0.00 in0.0 mm
09:44 PM 26.1°F-3.3°C 18.5°F-7.5°C 73% 3.4 mph ENE5.5 kmh ENE 5.8 mph9.3 kmh 29.80 in1009.1 mb 0.00 in0.0 mm 0.00 in0.0 mm 0.00 in0.0 mm
09:49 PM 25.7°F-3.5°C 19.2°F-7.1°C 76% 5.8 mph NE9.3 kmh NE 8.1 mph13.0 kmh 29.80 in1009.1 mb 0.00 in0.0 mm 0.00 in0.0 mm 0.00 in0.0 mm
09:54 PM 25.2°F-3.8°C 19.2°F-7.1°C 78% 1.1 mph E1.8 kmh E 2.2 mph3.5 kmh 29.81 in1009.5 mb 0.00 in0.0 mm 0.00 in0.0 mm 0.00 in0.0 mm
09:59 PM 24.8°F-4.0°C 19.6°F-6.9°C 80% 2.9 mph NE4.7 kmh NE 6.9 mph11.1 kmh 29.81 in1009.5 mb 0.00 in0.0 mm 0.00 in0.0 mm 0.00 in0.0 mm
10:04 PM 24.3°F-4.3°C 19.2°F-7.1°C 81% 5.4 mph NE8.7 kmh NE 8.1 mph13.0 kmh 29.81 in1009.5 mb 0.00 in0.0 mm 0.00 in0.0 mm 0.00 in0.0 mm
10:09 PM 24.3°F-4.3°C 19.4°F-7.0°C 82% 2.2 mph NE3.5 kmh NE 5.8 mph9.3 kmh 29.80 in1009.1 mb 0.00 in0.0 mm 0.00 in0.0 mm 0.00 in0.0 mm
10:14 PM 24.1°F-4.4°C 19.2°F-7.1°C 82% 0.7 mph NE1.1 kmh NE 1.1 mph1.8 kmh 29.81 in1009.5 mb 0.00 in0.0 mm 0.00 in0.0 mm 0.00 in0.0 mm
10:19 PM 23.7°F-4.6°C 19.2°F-7.1°C 83% 4.0 mph NE6.4 kmh NE 4.5 mph7.2 kmh 29.81 in1009.5 mb 0.00 in0.0 mm 0.00 in0.0 mm 0.00 in0.0 mm
10:24 PM 23.5°F-4.7°C 19.0°F-7.2°C 83% Calm Calm -- 29.82 in1009.8 mb 0.00 in0.0 mm 0.00 in0.0 mm 0.00 in0.0 mm
10:29 PM 23.5°F-4.7°C 19.0°F-7.2°C 83% 0.7 mph SE1.1 kmh SE 1.1 mph1.8 kmh 29.82 in1009.8 mb 0.00 in0.0 mm 0.00 in0.0 mm 0.00 in0.0 mm
10:34 PM 23.7°F-4.6°C 19.2°F-7.1°C 83% 0.7 mph NE1.1 kmh NE 2.2 mph3.5 kmh 29.81 in1009.5 mb 0.00 in0.0 mm 0.00 in0.0 mm 0.00 in0.0 mm
10:39 PM 23.5°F-4.7°C 19.4°F-7.0°C 84% 0.4 mph ENE0.6 kmh ENE 1.1 mph1.8 kmh 29.81 in1009.5 mb 0.00 in0.0 mm 0.00 in0.0 mm 0.00 in0.0 mm
10:44 PM 23.4°F-4.8°C 19.2°F-7.1°C 84% 2.9 mph NE4.7 kmh NE 3.4 mph5.5 kmh 29.81 in1009.5 mb 0.00 in0.0 mm 0.00 in0.0 mm 0.00 in0.0 mm
10:49 PM 23.4°F-4.8°C 19.6°F-6.9°C 85% 2.2 mph NE3.5 kmh NE 3.4 mph5.5 kmh 29.82 in1009.8 mb 0.00 in0.0 mm 0.00 in0.0 mm 0.00 in0.0 mm
10:54 PM 23.4°F-4.8°C 19.6°F-6.9°C 85% 0.2 mph NE0.3 kmh NE 1.1 mph1.8 kmh 29.83 in1010.2 mb 0.00 in0.0 mm 0.00 in0.0 mm 0.00 in0.0 mm
10:59 PM 23.4°F-4.8°C 19.6°F-6.9°C 85% 1.8 mph NE2.9 kmh NE 2.2 mph3.5 kmh 29.83 in1010.2 mb 0.00 in0.0 mm 0.00 in0.0 mm 0.00 in0.0 mm
11:04 PM 23.4°F-4.8°C 19.8°F-6.8°C 86% 0.9 mph NE1.4 kmh NE 2.2 mph3.5 kmh 29.83 in1010.2 mb 0.00 in0.0 mm 0.00 in0.0 mm 0.00 in0.0 mm
11:09 PM 23.5°F-4.7°C 19.9°F-6.7°C 86% 3.8 mph NE6.1 kmh NE 4.5 mph7.2 kmh 29.83 in1010.2 mb 0.00 in0.0 mm 0.00 in0.0 mm 0.00 in0.0 mm
11:14 PM 23.4°F-4.8°C 19.8°F-6.8°C 86% 1.3 mph E2.1 kmh E 3.4 mph5.5 kmh 29.83 in1010.2 mb 0.00 in0.0 mm 0.00 in0.0 mm 0.00 in0.0 mm
11:19 PM 23.0°F-5.0°C 19.6°F-6.9°C 87% 0.7 mph ENE1.1 kmh ENE 1.1 mph1.8 kmh 29.83 in1010.2 mb 0.00 in0.0 mm 0.00 in0.0 mm 0.00 in0.0 mm
11:24 PM 22.8°F-5.1°C 19.4°F-7.0°C 87% 0.4 mph E0.6 kmh E 1.1 mph1.8 kmh 29.82 in1009.8 mb 0.00 in0.0 mm 0.00 in0.0 mm 0.00 in0.0 mm
11:29 PM 22.8°F-5.1°C 19.4°F-7.0°C 87% 0.7 mph E1.1 kmh E 2.2 mph3.5 kmh 29.82 in1009.8 mb 0.00 in0.0 mm 0.00 in0.0 mm 0.00 in0.0 mm
11:34 PM 23.0°F-5.0°C 19.6°F-6.9°C 87% 0.2 mph ENE0.3 kmh ENE 1.1 mph1.8 kmh 29.82 in1009.8 mb 0.00 in0.0 mm 0.00 in0.0 mm 0.00 in0.0 mm
11:39 PM 22.8°F-5.1°C 19.6°F-6.9°C 88% 2.5 mph ENE4.0 kmh ENE 3.4 mph5.5 kmh 29.82 in1009.8 mb 0.00 in0.0 mm 0.00 in0.0 mm 0.00 in0.0 mm
11:44 PM 22.8°F-5.1°C 19.6°F-6.9°C 88% 1.1 mph NE1.8 kmh NE 4.5 mph7.2 kmh 29.82 in1009.8 mb 0.00 in0.0 mm 0.00 in0.0 mm 0.00 in0.0 mm
11:49 PM 22.6°F-5.2°C 19.4°F-7.0°C 88% 2.5 mph NE4.0 kmh NE 3.4 mph5.5 kmh 29.82 in1009.8 mb 0.00 in0.0 mm 0.00 in0.0 mm 0.00 in0.0 mm
11:54 PM 22.6°F-5.2°C 19.4°F-7.0°C 88% 2.7 mph ENE4.3 kmh ENE 4.5 mph7.2 kmh 29.82 in1009.8 mb 0.00 in0.0 mm 0.00 in0.0 mm 0.00 in0.0 mm
11:59 PM 22.6°F-5.2°C 19.4°F-7.0°C 88% 2.2 mph NE3.5 kmh NE 3.4 mph5.5 kmh 29.82 in1009.8 mb 0.00 in0.0 mm 0.00 in0.0 mm 0.00 in0.0 mm